Time;durP1;ratioP1;P1;durP2;ratioP2;P2;SDS_P1;SDS_P2;PMS_P1;PMS_P2;Temp;Humidity;BMP_temperature;BMP_pressure;BME280_temperature;BME280_humidity;BME280_pressure;Samples;Min_cycle;Max_cycle;Signal;HPM_P1;HPM_P2
2020/12/21 00:00:21;;;;;;;1.13;1.00;;;14.80;68.70;;;;;;4974617;28;20100;-76
2020/12/21 00:02:52;;;;;;;1.65;1.05;;;14.80;68.60;;;;;;4977341;28;20539;-76
2020/12/21 00:05:22;;;;;;;1.10;0.98;;;14.80;68.70;;;;;;4991403;28;20034;-76
2020/12/21 00:07:48;;;;;;;1.65;0.85;;;14.80;68.70;;;;;;4974071;28;20030;-76
2020/12/21 00:10:13;;;;;;;1.25;1.00;;;14.80;68.70;;;;;;4991196;28;20034;-76
2020/12/21 00:12:39;;;;;;;2.22;1.38;;;14.80;68.60;;;;;;4988339;28;20035;-75
2020/12/21 00:15:13;;;;;;;1.77;1.40;;;14.80;68.60;;;;;;4949953;28;20181;-77
2020/12/21 00:17:39;;;;;;;1.33;1.00;;;14.80;68.60;;;;;;4970509;28;20030;-76
2020/12/21 00:20:12;;;;;;;1.77;1.00;;;14.80;68.60;;;;;;4991028;28;20104;-75
2020/12/21 00:22:40;;;;;;;1.55;1.00;;;14.80;68.60;;;;;;4975230;28;20125;-76
2020/12/21 00:25:06;;;;;;;1.58;0.95;;;14.80;68.70;;;;;;4990549;28;20034;-76
2020/12/21 00:27:34;;;;;;;1.00;0.80;;;14.80;68.60;;;;;;4975123;28;20033;-76
2020/12/21 00:30:00;;;;;;;2.08;0.95;;;14.80;68.70;;;;;;4970898;28;20121;-79
2020/12/21 00:32:25;;;;;;;1.70;1.13;;;14.80;68.60;;;;;;4976873;28;20160;-76
2020/12/21 00:34:54;;;;;;;1.27;0.90;;;14.80;68.60;;;;;;4988419;28;20066;-77
2020/12/21 00:37:19;;;;;;;1.20;1.00;;;14.80;68.60;;;;;;5000511;28;20109;-75
2020/12/21 00:39:48;;;;;;;1.73;1.10;;;14.80;68.60;;;;;;4999655;28;20176;-76
2020/12/21 00:42:19;;;;;;;1.55;1.15;;;14.80;68.60;;;;;;4997162;28;20041;-76
2020/12/21 00:44:51;;;;;;;1.08;0.70;;;14.80;68.60;;;;;;5020761;28;20049;-75
2020/12/21 00:47:17;;;;;;;1.27;1.00;;;14.80;68.60;;;;;;5003210;28;20423;-76
2020/12/21 00:49:43;;;;;;;1.55;1.23;;;14.80;68.60;;;;;;5008605;28;20034;-76
2020/12/21 00:52:11;;;;;;;0.98;0.75;;;14.80;68.60;;;;;;4999791;28;20037;-76
2020/12/21 00:54:37;;;;;;;1.15;0.80;;;14.80;68.60;;;;;;5007597;28;20491;-76
2020/12/21 00:57:07;;;;;;;1.60;1.15;;;14.80;68.60;;;;;;4996097;28;20461;-76
2020/12/21 00:59:39;;;;;;;1.00;0.90;;;14.80;68.60;;;;;;5016286;28;20030;-77
2020/12/21 01:02:06;;;;;;;1.48;0.90;;;14.80;68.60;;;;;;5016107;28;20027;-76
2020/12/21 01:04:45;;;;;;;1.60;1.08;;;14.80;68.60;;;;;;5001618;28;20025;-76
2020/12/21 01:07:18;;;;;;;1.45;0.90;;;14.80;68.60;;;;;;5004407;28;20030;-76
2020/12/21 01:09:46;;;;;;;1.30;1.20;;;14.80;68.60;;;;;;5017720;28;20488;-76
2020/12/21 01:12:15;;;;;;;1.23;0.90;;;14.80;68.60;;;;;;5015760;28;20229;-77
2020/12/21 01:14:42;;;;;;;2.17;1.27;;;14.80;68.60;;;;;;5002968;28;20377;-76
2020/12/21 01:17:08;;;;;;;1.42;1.17;;;14.80;68.60;;;;;;5011848;28;20092;-76
2020/12/21 01:19:37;;;;;;;1.58;1.10;;;14.80;68.60;;;;;;5016308;28;20069;-75
2020/12/21 01:22:07;;;;;;;2.92;0.93;;;14.80;68.60;;;;;;5007512;28;20145;-75
2020/12/21 01:24:33;;;;;;;1.25;0.80;;;14.80;68.50;;;;;;5003021;28;20022;-76
2020/12/21 01:26:58;;;;;;;1.00;0.80;;;14.80;68.50;;;;;;5004397;28;20072;-76
2020/12/21 01:29:29;;;;;;;1.42;0.85;;;14.80;68.50;;;;;;5005433;28;20054;-77
2020/12/21 01:32:02;;;;;;;0.98;0.77;;;14.80;68.60;;;;;;4992883;28;20036;-76
2020/12/21 01:34:30;;;;;;;1.42;1.15;;;14.80;68.50;;;;;;5000628;28;20488;-76
2020/12/21 01:37:04;;;;;;;1.42;0.90;;;14.80;68.60;;;;;;5001908;28;20034;-76
2020/12/21 01:39:32;;;;;;;1.38;0.73;;;14.80;68.50;;;;;;4999918;28;20056;-77
2020/12/21 01:42:03;;;;;;;2.03;1.17;;;14.80;68.50;;;;;;5004267;28;20022;-77
2020/12/21 01:44:29;;;;;;;1.33;1.00;;;14.80;68.50;;;;;;5000683;28;20030;-76
2020/12/21 01:47:00;;;;;;;2.05;1.17;;;14.80;68.50;;;;;;5013490;28;20027;-77
2020/12/21 01:49:27;;;;;;;1.25;0.70;;;14.80;68.50;;;;;;5006219;28;20033;-77
2020/12/21 01:51:57;;;;;;;1.50;1.00;;;14.80;68.50;;;;;;5017845;28;20496;-76
2020/12/21 01:54:23;;;;;;;2.20;1.20;;;14.80;68.50;;;;;;4988094;28;20471;-76
2020/12/21 01:56:52;;;;;;;1.30;0.95;;;14.80;68.50;;;;;;5001867;28;20041;-76
2020/12/21 01:59:22;;;;;;;1.33;1.00;;;14.80;68.50;;;;;;5016477;28;20117;-76
2020/12/21 02:01:49;;;;;;;1.20;0.88;;;14.80;68.50;;;;;;5008360;28;20113;-76
2020/12/21 02:04:22;;;;;;;0.77;0.77;;;14.80;68.50;;;;;;4999134;28;20030;-76
2020/12/21 02:06:59;;;;;;;1.48;0.90;;;14.80;68.50;;;;;;4996921;28;20470;-76
2020/12/21 02:09:31;;;;;;;1.17;0.77;;;14.80;68.50;;;;;;5015840;28;20023;-76
2020/12/21 02:12:04;;;;;;;1.48;1.00;;;14.80;68.50;;;;;;5022159;28;20123;-76
2020/12/21 02:14:37;;;;;;;1.42;1.20;;;14.80;68.50;;;;;;5013182;28;20030;-76
2020/12/21 02:17:08;;;;;;;1.73;1.00;;;14.80;68.50;;;;;;5004939;28;21091;-76
2020/12/21 02:19:42;;;;;;;1.30;0.80;;;14.80;68.50;;;;;;4997005;28;20038;-76
2020/12/21 02:22:11;;;;;;;1.50;1.15;;;14.80;68.50;;;;;;5004467;28;20132;-76
2020/12/21 02:24:39;;;;;;;1.27;0.80;;;14.80;68.50;;;;;;5003479;28;20030;-76
2020/12/21 02:27:14;;;;;;;1.20;0.77;;;14.80;68.50;;;;;;5004502;28;20042;-76
2020/12/21 02:29:42;;;;;;;1.58;1.00;;;14.80;68.50;;;;;;5010741;28;20030;-76
2020/12/21 02:32:13;;;;;;;1.63;1.40;;;14.80;68.50;;;;;;5007206;28;20304;-76
2020/12/21 02:34:42;;;;;;;2.00;0.90;;;14.80;68.50;;;;;;5004580;28;20117;-76
2020/12/21 02:37:08;;;;;;;1.63;0.90;;;14.80;68.40;;;;;;4997414;28;20399;-76
2020/12/21 02:39:36;;;;;;;1.17;0.85;;;14.80;68.40;;;;;;5020992;28;20533;-75
2020/12/21 02:42:09;;;;;;;1.85;1.30;;;14.80;68.40;;;;;;5003580;28;20046;-76
2020/12/21 02:44:35;;;;;;;1.58;1.00;;;14.80;68.40;;;;;;5002145;28;20040;-76
2020/12/21 02:47:03;;;;;;;1.75;1.10;;;14.80;68.40;;;;;;5018951;28;20027;-75
2020/12/21 02:49:34;;;;;;;2.25;1.00;;;14.80;68.40;;;;;;4996266;28;20061;-75
2020/12/21 02:52:02;;;;;;;1.17;0.60;;;14.80;68.40;;;;;;5003344;28;20031;-77
2020/12/21 02:54:31;;;;;;;1.13;0.82;;;14.80;68.40;;;;;;5018336;28;20061;-76
2020/12/21 02:57:13;;;;;;;1.13;0.95;;;14.80;68.40;;;;;;5021560;28;20047;-79
2020/12/21 02:59:50;;;;;;;0.73;0.73;;;14.80;68.40;;;;;;5019106;28;20029;-75
2020/12/21 03:02:15;;;;;;;1.13;0.70;;;14.80;68.40;;;;;;5011649;28;20030;-76
2020/12/21 03:04:44;;;;;;;1.42;1.00;;;14.80;68.40;;;;;;5020027;28;20507;-75
2020/12/21 03:07:11;;;;;;;;;;;14.80;68.40;;;;;;5011766;28;20121;-76
2020/12/21 03:09:42;;;;;;;1.90;1.13;;;14.80;68.40;;;;;;5017799;28;19918;-77
2020/12/21 03:12:07;;;;;;;0.98;0.75;;;14.80;68.40;;;;;;5013568;28;20046;-76
2020/12/21 03:14:36;;;;;;;1.83;1.10;;;14.80;68.40;;;;;;5015985;28;20034;-75
2020/12/21 03:17:03;;;;;;;1.67;1.00;;;14.80;68.40;;;;;;5014433;28;20038;-76
2020/12/21 03:19:31;;;;;;;2.65;1.08;;;14.80;68.40;;;;;;4990422;28;20399;-75
2020/12/21 03:22:03;;;;;;;1.10;1.00;;;14.80;68.40;;;;;;5017472;28;20058;-77
2020/12/21 03:24:34;;;;;;;1.40;1.20;;;14.80;68.40;;;;;;5010991;28;20533;-76
2020/12/21 03:27:05;;;;;;;1.15;0.80;;;14.80;68.40;;;;;;5011073;28;20475;-77
2020/12/21 03:29:33;;;;;;;0.95;0.73;;;14.80;68.40;;;;;;5002129;28;20084;-77
2020/12/21 03:32:04;;;;;;;1.73;1.30;;;14.80;68.40;;;;;;5017426;28;20030;-75
2020/12/21 03:34:30;;;;;;;1.25;0.98;;;14.80;68.40;;;;;;5003378;28;20027;-76
2020/12/21 03:36:56;;;;;;;1.05;0.98;;;14.80;68.40;;;;;;5007430;28;20077;-76
2020/12/21 03:39:25;;;;;;;1.05;0.80;;;14.80;68.40;;;;;;5017750;28;20026;-75
2020/12/21 03:41:51;;;;;;;1.42;0.80;;;14.80;68.40;;;;;;5007095;28;20030;-75
2020/12/21 03:44:19;;;;;;;0.98;0.77;;;14.80;68.40;;;;;;5004781;28;20038;-75
2020/12/21 03:46:48;;;;;;;2.30;1.02;;;14.80;68.40;;;;;;4995386;28;20034;-75
2020/12/21 03:49:14;;;;;;;1.08;0.82;;;14.80;68.40;;;;;;5002353;28;20142;-75
2020/12/21 03:51:42;;;;;;;1.00;0.90;;;14.80;68.30;;;;;;5005579;28;20173;-75
2020/12/21 03:54:20;;;;;;;1.27;0.90;;;14.80;68.30;;;;;;5002225;28;20121;-75
2020/12/21 03:56:59;;;;;;;1.23;1.13;;;14.80;68.40;;;;;;5008177;28;20120;-76
2020/12/21 03:59:26;;;;;;;1.00;0.80;;;14.80;68.30;;;;;;5031243;28;20034;-76
2020/12/21 04:01:56;;;;;;;1.10;1.00;;;14.80;68.30;;;;;;5016951;28;20093;-75
2020/12/21 04:04:21;;;;;;;1.70;1.25;;;14.80;68.30;;;;;;5003039;28;20057;-76
2020/12/21 04:07:07;;;;;;;;;;;;;;;;;;;;;
2020/12/21 04:09:38;;;;;;;1.38;0.90;;;14.80;68.30;;;;;;5002021;28;20060;-76
2020/12/21 04:12:04;;;;;;;1.55;1.10;;;14.80;68.30;;;;;;4998980;28;20026;-76
2020/12/21 04:14:33;;;;;;;1.58;0.85;;;14.80;68.30;;;;;;5000204;28;20552;-76
2020/12/21 04:17:06;;;;;;;2.03;0.80;;;14.80;68.30;;;;;;5011653;28;20033;-76
2020/12/21 04:19:32;;;;;;;1.92;1.08;;;14.80;68.30;;;;;;4997626;28;20392;-76
2020/12/21 04:22:00;;;;;;;1.35;1.05;;;14.80;68.30;;;;;;5003043;28;20073;-76
2020/12/21 04:24:32;;;;;;;1.20;1.00;;;14.80;68.30;;;;;;5002493;28;20030;-76
2020/12/21 04:27:03;;;;;;;2.35;1.15;;;14.80;68.30;;;;;;5028929;28;20038;-75
2020/12/21 04:29:33;;;;;;;0.77;0.70;;;14.80;68.30;;;;;;5005368;28;20026;-76
2020/12/21 04:32:03;;;;;;;0.90;0.80;;;14.80;68.30;;;;;;5001982;28;20359;-76
2020/12/21 04:34:32;;;;;;;1.88;1.00;;;14.80;68.30;;;;;;5004102;28;20130;-76
2020/12/21 04:37:00;;;;;;;1.00;0.70;;;14.80;68.30;;;;;;5008733;28;20110;-77
2020/12/21 04:39:28;;;;;;;2.20;1.30;;;14.80;68.30;;;;;;5007220;28;20479;-77
2020/12/21 04:41:56;;;;;;;1.63;1.23;;;14.80;68.20;;;;;;5003661;28;20065;-76
2020/12/21 04:44:27;;;;;;;1.10;1.00;;;14.80;68.30;;;;;;5004007;28;20029;-76
2020/12/21 04:47:04;;;;;;;1.58;1.20;;;14.80;68.20;;;;;;5016370;28;20026;-76
2020/12/21 04:49:39;;;;;;;1.88;1.02;;;14.80;68.20;;;;;;5020337;28;20060;-76
2020/12/21 04:52:10;;;;;;;1.05;0.80;;;14.80;68.20;;;;;;5015747;28;20160;-76
2020/12/21 04:54:42;;;;;;;1.23;0.80;;;14.80;68.30;;;;;;4999051;28;20038;-76
2020/12/21 04:57:11;;;;;;;0.80;0.80;;;14.80;68.30;;;;;;5005706;28;20085;-76
2020/12/21 04:59:43;;;;;;;1.45;0.90;;;14.80;68.20;;;;;;5017479;28;20098;-77
2020/12/21 05:02:32;;;;;;;2.45;0.90;;;14.80;68.20;;;;;;5013508;28;20111;-76
2020/12/21 05:05:15;;;;;;;1.20;0.80;;;14.80;68.20;;;;;;4992363;28;20030;-78
2020/12/21 05:07:51;;;;;;;0.90;0.88;;;14.80;68.20;;;;;;5009018;28;20443;-76
2020/12/21 05:10:21;;;;;;;1.15;0.80;;;14.80;68.20;;;;;;5016932;28;20435;-76
2020/12/21 05:12:58;;;;;;;0.70;0.70;;;14.80;68.20;;;;;;5025908;28;20096;-76
2020/12/21 05:15:33;;;;;;;1.42;1.00;;;14.80;68.20;;;;;;5002719;28;20039;-76
2020/12/21 05:18:13;;;;;;;1.20;0.88;;;14.80;68.20;;;;;;5009561;28;20416;-76
2020/12/21 05:20:45;;;;;;;2.13;1.20;;;14.80;68.20;;;;;;4998058;28;20395;-76
2020/12/21 05:23:26;;;;;;;0.68;0.68;;;14.80;68.20;;;;;;4990254;28;20404;-76
2020/12/21 05:26:11;;;;;;;1.25;0.80;;;14.80;68.20;;;;;;5001876;28;20392;-76
2020/12/21 05:28:45;;;;;;;1.35;0.95;;;14.80;68.20;;;;;;5003689;28;20438;-76
2020/12/21 05:31:32;;;;;;;0.80;0.80;;;14.80;68.20;;;;;;5011853;28;20128;-76
2020/12/21 05:34:12;;;;;;;3.05;1.20;;;14.80;68.20;;;;;;4986955;28;20054;-76
2020/12/21 05:36:46;;;;;;;1.58;0.98;;;14.80;68.20;;;;;;4999767;28;20026;-76
2020/12/21 05:39:23;;;;;;;;;;;;;;;;;;;;;
2020/12/21 05:42:03;;;;;;;1.20;0.98;;;14.80;68.20;;;;;;5013826;28;20041;-76
2020/12/21 05:44:36;;;;;;;0.75;0.65;;;14.80;68.20;;;;;;5006627;28;20112;-76
2020/12/21 05:47:09;;;;;;;1.48;0.82;;;14.80;68.20;;;;;;5013958;28;20034;-76
2020/12/21 05:49:54;;;;;;;1.13;0.90;;;14.80;68.10;;;;;;4989645;28;20110;-76
2020/12/21 05:52:38;;;;;;;1.10;0.80;;;14.80;68.10;;;;;;5010072;28;20164;-76
2020/12/21 05:55:33;;;;;;;1.17;0.77;;;14.80;68.10;;;;;;4999546;28;20073;-76
2020/12/21 05:58:12;;;;;;;1.05;0.70;;;14.80;68.10;;;;;;5007037;28;20018;-76
2020/12/21 06:00:46;;;;;;;1.45;1.00;;;14.80;68.20;;;;;;4999453;28;20408;-77
2020/12/21 06:03:30;;;;;;;0.65;0.63;;;14.80;68.10;;;;;;5024207;28;20034;-76
2020/12/21 06:06:16;;;;;;;1.33;0.85;;;14.80;68.10;;;;;;5005046;28;20049;-76
2020/12/21 06:08:57;;;;;;;1.08;0.80;;;14.80;68.10;;;;;;5021809;28;20398;-77
2020/12/21 06:11:42;;;;;;;1.17;0.82;;;14.80;68.10;;;;;;4998313;28;20042;-76
2020/12/21 06:14:15;;;;;;;1.05;0.73;;;14.80;68.10;;;;;;5003884;28;20101;-76
2020/12/21 06:16:46;;;;;;;1.02;0.90;;;14.80;68.10;;;;;;5007487;28;20483;-76
2020/12/21 06:19:35;;;;;;;1.05;0.90;;;14.80;68.10;;;;;;5004244;28;20049;-77
2020/12/21 06:22:07;;;;;;;1.48;1.00;;;14.80;68.10;;;;;;5005558;28;20037;-77
2020/12/21 06:24:40;;;;;;;0.85;0.77;;;14.80;68.10;;;;;;5005680;28;20740;-76
2020/12/21 06:27:21;;;;;;;1.27;0.93;;;14.80;68.10;;;;;;5002023;28;20029;-77
2020/12/21 06:30:07;;;;;;;1.25;0.95;;;14.80;68.10;;;;;;5018482;28;20026;-77
2020/12/21 06:32:51;;;;;;;1.00;0.80;;;14.80;68.10;;;;;;5020357;28;20036;-77
2020/12/21 06:35:22;;;;;;;1.50;0.82;;;14.80;68.10;;;;;;5006370;28;20037;-77
2020/12/21 06:38:09;;;;;;;1.08;0.85;;;14.80;68.10;;;;;;5015665;28;20018;-77
2020/12/21 06:40:41;;;;;;;1.00;0.82;;;14.80;68.10;;;;;;5011112;28;20019;-77
2020/12/21 06:43:18;;;;;;;1.23;0.77;;;14.80;68.10;;;;;;5003367;28;20578;-76
2020/12/21 06:45:57;;;;;;;0.93;0.82;;;14.80;68.10;;;;;;5006209;28;20502;-76
2020/12/21 06:48:34;;;;;;;1.30;0.93;;;14.80;68.10;;;;;;4996118;28;20033;-77
2020/12/21 06:51:15;;;;;;;1.65;0.85;;;14.80;68.10;;;;;;5005671;28;20109;-76
2020/12/21 06:54:05;;;;;;;1.17;0.75;;;14.80;68.10;;;;;;5010084;28;20117;-77
2020/12/21 06:56:35;;;;;;;1.50;0.85;;;14.80;68.10;;;;;;5000890;28;20022;-76
2020/12/21 06:59:13;;;;;;;1.45;0.85;;;14.80;68.00;;;;;;5002651;28;20014;-78
2020/12/21 07:01:49;;;;;;;0.80;0.80;;;14.80;68.10;;;;;;5017743;28;20537;-76
2020/12/21 07:04:19;;;;;;;0.77;0.63;;;14.80;68.10;;;;;;5017761;28;20113;-77
2020/12/21 07:06:55;;;;;;;1.17;1.00;;;14.80;68.10;;;;;;5020744;28;20022;-77
2020/12/21 07:09:37;;;;;;;1.02;0.90;;;14.80;68.00;;;;;;5003438;28;20046;-77
2020/12/21 07:12:11;;;;;;;2.03;1.00;;;14.80;68.00;;;;;;5005783;28;20040;-76
2020/12/21 07:14:40;;;;;;;1.58;0.80;;;14.80;68.00;;;;;;5006620;28;20550;-77
2020/12/21 07:17:12;;;;;;;1.08;0.70;;;14.80;68.00;;;;;;4999383;28;20121;-76
2020/12/21 07:19:52;;;;;;;1.20;0.95;;;14.80;68.00;;;;;;5006058;28;20030;-76
2020/12/21 07:22:21;;;;;;;1.13;0.80;;;14.80;68.00;;;;;;5003065;28;20551;-77
2020/12/21 07:25:00;;;;;;;0.88;0.70;;;14.80;68.00;;;;;;4997594;28;20033;-77
2020/12/21 07:27:34;;;;;;;1.08;0.95;;;14.80;68.00;;;;;;5028552;28;20018;-77
2020/12/21 07:30:09;;;;;;;1.80;1.00;;;14.80;68.00;;;;;;5026824;28;20480;-76
2020/12/21 07:32:49;;;;;;;0.93;0.80;;;14.80;68.00;;;;;;5014316;28;20080;-76
2020/12/21 07:35:20;;;;;;;1.27;0.80;;;14.80;68.00;;;;;;5021805;28;20040;-77
2020/12/21 07:37:48;;;;;;;1.17;1.08;;;14.80;67.90;;;;;;5007665;28;20045;-79
2020/12/21 07:40:21;;;;;;;1.92;0.95;;;14.80;67.90;;;;;;5020455;28;20088;-77
2020/12/21 07:42:53;;;;;;;0.80;0.80;;;14.80;68.00;;;;;;5014377;28;20034;-76
2020/12/21 07:45:34;;;;;;;1.60;0.98;;;14.80;67.90;;;;;;5020769;28;20025;-77
2020/12/21 07:48:15;;;;;;;0.77;0.70;;;14.80;68.00;;;;;;5020025;28;20033;-76
2020/12/21 07:51:20;;;;;;;;;;;;;;;;;;;;;
2020/12/21 07:53:43;;;;;;;0.95;0.73;;;14.80;67.90;;;;;;5009661;28;20069;-77
2020/12/21 07:56:19;;;;;;;1.02;0.80;;;14.80;67.90;;;;;;5015692;28;20022;-76
2020/12/21 07:58:51;;;;;;;0.80;0.80;;;14.80;67.90;;;;;;4998863;28;20027;-78
2020/12/21 08:01:25;;;;;;;1.17;0.90;;;14.80;67.90;;;;;;5014136;28;20209;-77
2020/12/21 08:04:01;;;;;;;0.95;0.88;;;14.90;67.90;;;;;;5008110;28;20324;-77
2020/12/21 08:06:39;;;;;;;0.70;0.68;;;14.90;67.90;;;;;;5002192;28;20092;-76
2020/12/21 08:09:37;;;;;;;1.13;0.98;;;14.90;67.80;;;;;;5014167;28;20017;-77
2020/12/21 08:12:13;;;;;;;1.70;1.10;;;14.90;67.80;;;;;;5019418;28;20558;-76
2020/12/21 08:14:44;;;;;;;1.02;0.80;;;14.90;67.80;;;;;;5035446;28;20025;-76
2020/12/21 08:17:14;;;;;;;1.27;0.77;;;14.90;67.80;;;;;;5013607;28;20049;-75
2020/12/21 08:19:56;;;;;;;1.33;0.80;;;14.90;67.70;;;;;;5008154;28;20046;-76
2020/12/21 08:22:25;;;;;;;1.70;0.90;;;14.90;67.60;;;;;;5004155;28;20503;-76
2020/12/21 08:25:31;;;;;;;0.98;0.68;;;15.00;67.70;;;;;;4994462;28;20039;-76
2020/12/21 08:28:03;;;;;;;1.60;1.00;;;14.90;67.60;;;;;;4970740;28;20424;-76
2020/12/21 08:30:34;;;;;;;1.30;0.90;;;14.90;67.60;;;;;;4971724;28;20121;-76
2020/12/21 08:33:15;;;;;;;2.15;1.00;;;14.90;67.60;;;;;;4954381;28;20144;-76
2020/12/21 08:35:43;;;;;;;0.63;0.60;;;14.90;67.70;;;;;;4958678;28;20464;-76
2020/12/21 08:38:18;;;;;;;;;;;14.90;67.60;;;;;;4967695;28;20165;-76
2020/12/21 08:41:06;;;;;;;0.98;0.82;;;15.00;67.60;;;;;;4952479;28;20004;-76
2020/12/21 08:43:39;;;;;;;1.33;0.80;;;15.00;67.60;;;;;;4945730;28;20039;-76
2020/12/21 08:46:25;;;;;;;1.42;1.13;;;15.00;67.50;;;;;;4973368;28;20377;-77
2020/12/21 08:48:58;;;;;;;1.33;0.88;;;15.00;67.60;;;;;;4957162;28;20039;-76
2020/12/21 08:51:42;;;;;;;;;;;;;;;;;;;;;
2020/12/21 08:54:26;;;;;;;1.05;0.90;;;15.00;67.50;;;;;;4970285;28;20034;-76
2020/12/21 08:56:59;;;;;;;1.30;1.00;;;15.00;67.50;;;;;;4950426;28;20031;-76
2020/12/21 08:59:27;;;;;;;1.05;0.90;;;15.00;67.40;;;;;;4944842;28;20456;-76
2020/12/21 09:01:55;;;;;;;0.88;0.80;;;15.00;67.40;;;;;;4955698;28;20101;-76
2020/12/21 09:04:21;;;;;;;1.33;0.98;;;15.00;67.40;;;;;;4961923;28;20062;-76
2020/12/21 09:06:50;;;;;;;0.90;0.73;;;15.00;67.40;;;;;;5023529;28;20075;-77
2020/12/21 09:09:16;;;;;;;1.73;1.00;;;15.00;67.40;;;;;;5018078;28;20116;-76
2020/12/21 09:12:02;;;;;;;1.13;0.88;;;15.00;67.40;;;;;;5022206;28;20037;-76
2020/12/21 09:14:28;;;;;;;0.68;0.60;;;15.00;67.30;;;;;;5016706;28;20029;-77
2020/12/21 09:16:57;;;;;;;0.88;0.80;;;15.00;67.40;;;;;;5011610;28;20067;-78
2020/12/21 09:19:25;;;;;;;0.75;0.70;;;15.00;67.40;;;;;;4995206;28;20030;-77
2020/12/21 09:21:52;;;;;;;1.13;0.77;;;15.00;67.30;;;;;;5008673;28;20121;-78
2020/12/21 09:24:30;;;;;;;1.58;0.93;;;15.00;67.30;;;;;;5000899;28;20026;-78
2020/12/21 09:26:59;;;;;;;1.17;0.70;;;15.10;67.30;;;;;;5003339;28;20080;-80
2020/12/21 09:29:31;;;;;;;1.15;0.82;;;15.10;67.20;;;;;;5016351;28;20529;-77
2020/12/21 09:32:01;;;;;;;1.05;0.88;;;15.10;67.20;;;;;;5022785;28;20038;-76
2020/12/21 09:34:26;;;;;;;1.15;0.77;;;15.10;67.20;;;;;;5018770;28;20030;-76
2020/12/21 09:36:52;;;;;;;1.23;0.80;;;15.10;67.20;;;;;;4997581;28;20070;-75
2020/12/21 09:39:18;;;;;;;1.20;0.95;;;15.10;67.20;;;;;;4991119;28;20042;-76
2020/12/21 09:41:50;;;;;;;1.58;0.70;;;15.10;67.20;;;;;;5004107;28;20506;-76
2020/12/21 09:44:22;;;;;;;1.10;0.90;;;15.10;67.10;;;;;;5023933;28;20056;-78
2020/12/21 09:46:52;;;;;;;0.70;0.70;;;15.10;67.10;;;;;;5012543;28;20041;-79
2020/12/21 09:49:30;;;;;;;0.82;0.70;;;15.10;67.10;;;;;;5010299;28;20479;-77
2020/12/21 09:51:58;;;;;;;1.03;0.83;;;15.10;67.10;;;;;;5006555;28;20036;-80
2020/12/21 09:54:26;;;;;;;0.85;0.80;;;15.10;67.10;;;;;;5001147;28;20045;-77
2020/12/21 09:56:56;;;;;;;0.90;0.80;;;15.10;67.00;;;;;;5027610;28;20021;-77
2020/12/21 09:59:26;;;;;;;1.35;0.80;;;15.10;67.00;;;;;;4999594;28;20033;-77
2020/12/21 10:01:56;;;;;;;1.73;1.23;;;15.20;67.00;;;;;;5021081;28;20095;-76
2020/12/21 10:04:27;;;;;;;1.15;0.90;;;15.20;67.00;;;;;;5005705;28;20112;-77
2020/12/21 10:06:58;;;;;;;1.08;0.70;;;15.10;67.00;;;;;;5003839;28;20125;-76
2020/12/21 10:09:26;;;;;;;0.82;0.77;;;15.20;67.00;;;;;;5013211;28;20060;-76
2020/12/21 10:11:53;;;;;;;1.05;0.95;;;15.10;67.00;;;;;;5014538;28;20037;-76
2020/12/21 10:14:21;;;;;;;1.00;0.80;;;15.20;66.90;;;;;;5015411;28;20042;-77
2020/12/21 10:16:58;;;;;;;0.93;0.60;;;15.10;66.90;;;;;;4999705;28;20030;-77
2020/12/21 10:19:30;;;;;;;1.00;0.73;;;15.20;66.90;;;;;;5005197;28;20111;-77
2020/12/21 10:22:05;;;;;;;1.55;0.82;;;15.10;66.90;;;;;;5004886;28;20079;-77
2020/12/21 10:24:37;;;;;;;0.68;0.68;;;15.20;66.90;;;;;;5012779;28;20546;-76
2020/12/21 10:27:07;;;;;;;0.70;0.70;;;15.20;66.80;;;;;;5007129;28;20461;-76
2020/12/21 10:29:34;;;;;;;1.17;0.98;;;15.20;66.80;;;;;;5002428;28;20079;-76
2020/12/21 10:32:16;;;;;;;0.93;0.88;;;15.20;66.80;;;;;;5023149;28;20391;-76
2020/12/21 10:34:45;;;;;;;1.05;0.93;;;15.20;66.80;;;;;;5010465;28;20040;-76
2020/12/21 10:37:23;;;;;;;0.95;0.75;;;15.20;66.80;;;;;;5003589;28;20050;-76
2020/12/21 10:39:57;;;;;;;1.45;0.93;;;15.20;66.80;;;;;;4994642;28;20049;-76
2020/12/21 10:42:37;;;;;;;1.05;0.88;;;15.20;66.70;;;;;;5009774;28;20054;-77
2020/12/21 10:45:10;;;;;;;0.70;0.70;;;15.20;66.70;;;;;;5009242;28;20047;-77
2020/12/21 10:47:41;;;;;;;0.80;0.80;;;15.20;66.70;;;;;;5014385;28;20029;-77
2020/12/21 10:50:18;;;;;;;1.02;0.77;;;15.20;66.70;;;;;;5003397;28;20022;-77
2020/12/21 10:52:47;;;;;;;1.10;0.73;;;15.30;66.60;;;;;;5017456;28;20038;-76
2020/12/21 10:55:16;;;;;;;0.85;0.75;;;15.20;66.60;;;;;;4998436;28;20388;-76
2020/12/21 10:57:51;;;;;;;1.30;0.70;;;15.20;66.60;;;;;;5026346;28;20468;-77
2020/12/21 11:00:24;;;;;;;1.33;1.00;;;15.30;66.60;;;;;;5008869;28;20549;-77
2020/12/21 11:02:50;;;;;;;0.77;0.70;;;15.20;66.60;;;;;;5030033;28;20052;-77
2020/12/21 11:05:18;;;;;;;1.00;0.88;;;15.20;66.60;;;;;;5017350;28;20044;-76
2020/12/21 11:08:17;;;;;;;0.75;0.55;;;15.20;66.60;;;;;;5023016;28;20026;-77
2020/12/21 11:10:47;;;;;;;1.00;0.80;;;15.20;66.60;;;;;;5002213;28;20034;-77
2020/12/21 11:13:15;;;;;;;0.85;0.80;;;15.20;66.60;;;;;;5024562;28;20551;-76
2020/12/21 11:15:44;;;;;;;1.08;0.70;;;15.30;66.60;;;;;;5016612;28;20036;-78
2020/12/21 11:18:10;;;;;;;1.02;0.88;;;15.30;66.50;;;;;;5011263;28;20059;-77
2020/12/21 11:20:45;;;;;;;0.82;0.65;;;15.30;66.50;;;;;;5022773;28;20029;-77
2020/12/21 11:23:11;;;;;;;1.17;0.93;;;15.20;66.50;;;;;;5001901;28;20771;-77
2020/12/21 11:25:42;;;;;;;1.10;1.00;;;15.30;66.50;;;;;;5002617;28;20050;-76
2020/12/21 11:28:13;;;;;;;0.88;0.70;;;15.30;66.50;;;;;;5010758;28;20479;-77
2020/12/21 11:30:43;;;;;;;0.77;0.68;;;15.30;66.40;;;;;;5019622;28;20026;-77
2020/12/21 11:33:19;;;;;;;0.90;0.70;;;15.30;66.40;;;;;;5015657;28;20081;-77
2020/12/21 11:35:49;;;;;;;1.25;0.80;;;15.30;66.40;;;;;;5001201;28;20117;-76
2020/12/21 11:38:19;;;;;;;0.80;0.57;;;15.30;66.40;;;;;;5016810;28;20030;-77
2020/12/21 11:40:50;;;;;;;1.23;0.80;;;15.30;66.40;;;;;;5019751;28;20031;-78
2020/12/21 11:43:21;;;;;;;0.80;0.60;;;15.30;66.40;;;;;;5024099;28;20034;-77
2020/12/21 11:45:48;;;;;;;1.20;0.77;;;15.30;66.40;;;;;;5010085;28;20109;-78
2020/12/21 11:48:13;;;;;;;0.88;0.70;;;15.30;66.40;;;;;;5007713;28;20120;-77
2020/12/21 11:50:39;;;;;;;0.77;0.70;;;15.30;66.40;;;;;;5003136;28;20120;-77
2020/12/21 11:53:07;;;;;;;1.55;0.70;;;15.30;66.40;;;;;;5000015;28;20073;-78
2020/12/21 11:55:36;;;;;;;1.08;0.70;;;15.30;66.40;;;;;;5002867;28;20048;-78
2020/12/21 11:58:14;;;;;;;2.03;0.60;;;15.30;66.40;;;;;;5006263;28;20458;-77
2020/12/21 12:00:41;;;;;;;0.60;0.60;;;15.30;66.40;;;;;;5008295;28;20036;-77
2020/12/21 12:03:17;;;;;;;1.10;0.80;;;15.30;66.40;;;;;;5006970;28;20057;-76
2020/12/21 12:05:48;;;;;;;1.10;0.80;;;15.30;66.40;;;;;;5000815;28;20048;-77
2020/12/21 12:08:14;;;;;;;1.65;1.25;;;15.30;66.40;;;;;;5004139;28;20027;-78
2020/12/21 12:10:40;;;;;;;1.10;0.80;;;15.30;66.40;;;;;;5002781;28;20049;-77
2020/12/21 12:13:08;;;;;;;0.82;0.55;;;15.30;66.40;;;;;;5003857;28;20109;-77
2020/12/21 12:15:40;;;;;;;0.93;0.70;;;15.30;66.40;;;;;;5007358;28;20026;-78
2020/12/21 12:18:08;;;;;;;1.25;0.82;;;15.30;66.50;;;;;;5006211;28;20129;-77
2020/12/21 12:20:34;;;;;;;0.98;0.77;;;15.30;66.50;;;;;;5000750;28;20025;-77
2020/12/21 12:23:04;;;;;;;0.82;0.75;;;15.30;66.50;;;;;;4999892;28;20033;-77
2020/12/21 12:25:33;;;;;;;0.70;0.70;;;15.30;66.50;;;;;;5010629;28;20464;-77
2020/12/21 12:28:00;;;;;;;0.60;0.60;;;15.30;66.50;;;;;;5010493;28;20112;-77
2020/12/21 12:30:28;;;;;;;1.27;0.90;;;15.30;66.50;;;;;;5018872;28;20021;-77
2020/12/21 12:33:08;;;;;;;1.00;0.90;;;15.30;66.50;;;;;;5006421;28;20120;-77
2020/12/21 12:35:34;;;;;;;1.23;0.70;;;15.30;66.50;;;;;;5007313;28;20029;-77
2020/12/21 12:37:59;;;;;;;1.10;1.00;;;15.30;66.50;;;;;;5005949;28;20475;-78
2020/12/21 12:40:26;;;;;;;0.98;0.80;;;15.30;66.50;;;;;;5003699;28;20472;-78
2020/12/21 12:42:58;;;;;;;1.02;0.70;;;15.30;66.50;;;;;;5002518;28;20510;-78
2020/12/21 12:45:27;;;;;;;1.63;0.90;;;15.30;66.50;;;;;;5011381;28;20031;-76
2020/12/21 12:47:57;;;;;;;0.80;0.80;;;15.20;66.50;;;;;;5025550;28;20029;-76
2020/12/21 12:50:29;;;;;;;1.00;0.90;;;15.30;66.50;;;;;;5005633;28;20029;-75
2020/12/21 12:52:58;;;;;;;1.13;0.70;;;15.20;66.50;;;;;;5001871;28;20054;-76
2020/12/21 12:55:40;;;;;;;;;;;;;;;;;;;;;
2020/12/21 12:58:08;;;;;;;0.75;0.70;;;15.30;66.50;;;;;;5004868;28;20379;-75
2020/12/21 13:00:39;;;;;;;1.05;0.70;;;15.30;66.50;;;;;;5014391;28;20022;-78
2020/12/21 13:03:06;;;;;;;0.73;0.73;;;15.30;66.50;;;;;;5012776;28;20025;-76
2020/12/21 13:05:36;;;;;;;0.82;0.75;;;15.30;66.50;;;;;;5003879;28;20044;-77
2020/12/21 13:08:11;;;;;;;0.60;0.60;;;15.30;66.50;;;;;;4997900;28;20023;-79
2020/12/21 13:10:38;;;;;;;0.75;0.60;;;15.30;66.50;;;;;;5010128;28;20054;-76
2020/12/21 13:13:11;;;;;;;0.80;0.60;;;15.30;66.50;;;;;;5009777;28;20475;-77
2020/12/21 13:15:41;;;;;;;0.52;0.52;;;15.20;66.50;;;;;;4998755;28;20022;-76
2020/12/21 13:18:12;;;;;;;0.55;0.47;;;15.30;66.50;;;;;;5007929;28;20025;-76